createdAt,value
2023-05-23T00:00:03.999Z,9.747347
2023-05-23T00:01:03.974Z,9.747467
2023-05-23T00:02:03.968Z,9.747425
2023-05-23T00:03:04.011Z,9.747268
2023-05-23T00:04:03.992Z,9.747196
2023-05-23T00:05:03.936Z,9.747282
2023-05-23T00:06:03.920Z,9.747313
2023-05-23T00:07:03.913Z,9.747327
2023-05-23T00:08:35.926Z,9.747402
2023-05-23T00:09:03.900Z,9.747305
2023-05-23T00:10:03.901Z,9.747114
2023-05-23T00:11:03.896Z,9.747313
2023-05-23T00:12:03.883Z,9.747275
2023-05-23T00:13:03.919Z,9.747310
2023-05-23T00:14:03.890Z,9.747420
2023-05-23T00:15:03.874Z,9.747071
2023-05-23T00:16:03.858Z,9.747570
2023-05-23T00:17:03.925Z,9.747744
2023-05-23T00:18:03.867Z,9.747578
2023-05-23T00:19:03.870Z,9.747553
2023-05-23T00:20:03.825Z,9.747484
2023-05-23T00:21:03.817Z,9.747476
2023-05-23T00:22:04.829Z,9.747273
2023-05-23T00:23:03.830Z,9.747484
2023-05-23T00:24:03.868Z,9.747368
2023-05-23T00:25:03.781Z,9.747505
2023-05-23T00:26:03.795Z,9.747427
2023-05-23T00:27:03.800Z,9.747269
2023-05-23T00:28:03.794Z,9.747195
2023-05-23T00:29:03.753Z,9.747206
2023-05-23T00:30:03.758Z,9.747177
2023-05-23T00:31:03.762Z,9.747394
2023-05-23T00:32:03.754Z,9.747387
2023-05-23T00:33:03.750Z,9.747209
2023-05-23T00:34:03.711Z,9.747367
2023-05-23T00:35:03.729Z,9.747458
2023-05-23T00:36:03.705Z,9.747266
2023-05-23T00:37:03.728Z,9.747428
2023-05-23T00:38:03.688Z,9.747423
2023-05-23T00:39:03.679Z,9.747332
2023-05-23T00:40:03.747Z,9.747517
2023-05-23T00:41:03.676Z,9.747361
2023-05-23T00:42:03.681Z,9.747480
2023-05-23T00:43:03.647Z,9.747441
2023-05-23T00:44:03.632Z,9.747326
2023-05-23T00:45:03.650Z,9.747309
2023-05-23T00:46:03.682Z,9.747307
2023-05-23T00:47:03.645Z,9.747437
2023-05-23T00:48:03.662Z,9.747355
2023-05-23T00:49:03.613Z,9.747443
2023-05-23T00:50:03.599Z,9.747366
2023-05-23T00:51:03.832Z,9.747267
2023-05-23T00:52:03.577Z,9.747263
2023-05-23T00:53:03.569Z,9.747164
2023-05-23T00:54:03.560Z,9.747235
2023-05-23T00:55:03.571Z,9.747175
2023-05-23T00:56:03.662Z,9.747243
2023-05-23T00:57:03.549Z,9.747172
2023-05-23T00:58:03.532Z,9.747380
2023-05-23T00:59:03.527Z,9.747350
2023-05-23T01:00:03.549Z,9.747389
2023-05-23T01:01:03.542Z,9.747337
2023-05-23T01:02:03.537Z,9.747459
2023-05-23T01:03:03.525Z,9.747378
2023-05-23T01:04:03.526Z,9.747169
2023-05-23T01:05:03.529Z,9.747479
2023-05-23T01:06:03.483Z,9.747460
2023-05-23T01:07:03.468Z,9.747317
2023-05-23T01:08:03.472Z,9.747376
2023-05-23T01:09:03.458Z,9.747190
2023-05-23T01:10:03.472Z,9.747291
2023-05-23T01:11:03.439Z,9.747386
2023-05-23T01:12:03.503Z,9.747485
2023-05-23T01:13:03.412Z,9.747744
2023-05-23T01:14:03.446Z,9.747113
2023-05-23T01:15:04.423Z,9.747392
2023-05-23T01:16:03.443Z,9.747365
2023-05-23T01:17:03.378Z,9.747494
2023-05-23T01:18:03.417Z,9.747607
2023-05-23T01:19:03.436Z,9.747565
2023-05-23T01:20:03.360Z,9.747597
2023-05-23T01:21:03.352Z,9.747939
2023-05-23T01:22:03.346Z,9.747813
2023-05-23T01:23:03.334Z,9.747884
2023-05-23T01:24:03.355Z,9.747781
2023-05-23T01:25:03.323Z,9.747719
2023-05-23T01:26:03.311Z,9.747535
2023-05-23T01:27:03.314Z,9.747760
2023-05-23T01:28:03.407Z,9.747541
2023-05-23T01:29:03.309Z,9.747511
2023-05-23T01:30:03.272Z,9.747606
2023-05-23T01:31:03.279Z,9.747561
2023-05-23T01:32:03.347Z,9.747355
2023-05-23T01:33:03.368Z,9.747379
2023-05-23T01:34:03.245Z,9.747468
2023-05-23T01:35:03.237Z,9.747388
2023-05-23T01:36:03.236Z,9.747538
2023-05-23T01:37:03.220Z,9.747542
2023-05-23T01:38:03.280Z,9.747841
2023-05-23T01:39:03.214Z,9.747678
2023-05-23T01:40:03.196Z,9.747474
2023-05-23T01:41:03.182Z,9.747503
2023-05-23T01:42:03.211Z,9.747480
2023-05-23T01:43:03.197Z,9.747458
2023-05-23T01:44:03.248Z,9.747530
2023-05-23T01:45:03.165Z,9.747540
2023-05-23T01:46:03.220Z,9.747476
2023-05-23T01:47:03.176Z,9.747592
2023-05-23T01:48:03.187Z,9.747439
2023-05-23T01:49:03.130Z,9.747448
2023-05-23T01:50:03.127Z,9.747311
2023-05-23T01:51:03.119Z,9.747437
2023-05-23T01:52:03.144Z,9.747483
2023-05-23T01:53:03.103Z,9.747542
2023-05-23T01:54:03.098Z,9.747443
2023-05-23T01:55:03.090Z,9.747467
2023-05-23T01:56:03.078Z,9.747487
2023-05-23T01:57:03.110Z,9.747599
2023-05-23T01:58:03.074Z,9.747665
2023-05-23T01:59:03.074Z,9.747662
2023-05-23T02:00:03.131Z,9.747609
2023-05-23T02:01:03.114Z,9.747547
2023-05-23T02:02:03.070Z,9.747416
2023-05-23T02:03:03.116Z,9.747514
2023-05-23T02:04:03.029Z,9.747558
2023-05-23T02:05:03.024Z,9.747514
2023-05-23T02:06:03.042Z,9.747610
2023-05-23T02:07:02.993Z,9.747536
2023-05-23T02:08:02.998Z,9.747544
2023-05-23T02:09:02.999Z,9.747517
2023-05-23T02:10:02.980Z,9.747475
2023-05-23T02:11:03.000Z,9.747450
2023-05-23T02:12:02.967Z,9.747540
2023-05-23T02:13:02.966Z,9.747480
2023-05-23T02:14:02.944Z,9.747597
2023-05-23T02:15:02.972Z,9.747631
2023-05-23T02:16:03.041Z,9.747624
2023-05-23T02:17:03.002Z,9.747543
2023-05-23T02:18:03.000Z,9.747615
2023-05-23T02:19:02.961Z,9.747494
2023-05-23T02:20:02.918Z,9.747493
2023-05-23T02:21:02.899Z,9.747481
2023-05-23T02:22:02.890Z,9.747457
2023-05-23T02:23:02.894Z,9.747455
2023-05-23T02:24:02.910Z,9.747491
2023-05-23T02:25:02.916Z,9.747576
2023-05-23T02:26:02.843Z,9.747471
2023-05-23T02:27:02.838Z,9.747409
2023-05-23T02:28:02.828Z,9.747467
2023-05-23T02:29:02.863Z,9.747475
2023-05-23T02:30:02.848Z,9.747508
2023-05-23T02:31:02.890Z,9.747515
2023-05-23T02:32:02.881Z,9.747567
2023-05-23T02:33:02.816Z,9.747582
2023-05-23T02:34:02.814Z,9.747669
2023-05-23T02:35:02.802Z,9.747639
2023-05-23T02:36:02.762Z,9.747458
2023-05-23T02:37:02.766Z,9.747524
2023-05-23T02:38:02.752Z,9.747553
2023-05-23T02:39:02.774Z,9.747583
2023-05-23T02:40:02.744Z,9.747674
2023-05-23T02:41:02.736Z,9.747643
2023-05-23T02:42:02.726Z,9.747602
2023-05-23T02:43:02.711Z,9.747634
2023-05-23T02:44:02.733Z,9.747671
2023-05-23T02:45:02.732Z,9.747650
2023-05-23T02:46:02.724Z,9.747654
2023-05-23T02:47:02.685Z,9.747664
2023-05-23T02:48:02.827Z,9.747614
2023-05-23T02:49:02.700Z,9.747622
2023-05-23T02:50:02.666Z,9.747640
2023-05-23T02:51:02.661Z,9.747608
2023-05-23T02:52:02.678Z,9.747663
2023-05-23T02:53:02.844Z,9.747539
2023-05-23T02:54:02.636Z,9.747619
2023-05-23T02:55:02.646Z,9.747661
2023-05-23T02:56:02.632Z,9.747736
2023-05-23T02:57:02.612Z,9.747679
2023-05-23T02:58:02.640Z,9.747606
2023-05-23T02:59:02.607Z,9.747602
2023-05-23T03:00:02.601Z,9.747580
2023-05-23T03:01:02.585Z,9.747559
2023-05-23T03:02:02.627Z,9.747511
2023-05-23T03:03:02.635Z,9.747505
2023-05-23T03:04:02.754Z,9.747540
2023-05-23T03:05:02.649Z,9.747473
2023-05-23T03:06:02.612Z,9.747520
2023-05-23T03:07:03.069Z,9.747443
2023-05-23T03:08:02.629Z,9.747474
2023-05-23T03:09:02.623Z,9.747487
2023-05-23T03:10:02.624Z,9.747355
2023-05-23T03:11:02.599Z,9.747473
2023-05-23T03:12:02.622Z,9.747416
2023-05-23T03:13:02.592Z,9.747445
2023-05-23T03:14:02.572Z,9.747474
2023-05-23T03:15:02.573Z,9.747437
2023-05-23T03:16:02.709Z,9.747421
2023-05-23T03:17:02.578Z,9.747454
2023-05-23T03:18:02.557Z,9.747459
2023-05-23T03:19:02.596Z,9.747441
2023-05-23T03:20:02.599Z,9.747466
2023-05-23T03:21:02.560Z,9.747480
2023-05-23T03:22:02.521Z,9.747440
2023-05-23T03:23:02.516Z,9.747417
2023-05-23T03:24:02.508Z,9.747350
2023-05-23T03:25:02.495Z,9.747526
2023-05-23T03:26:02.505Z,9.747441
2023-05-23T03:27:02.472Z,9.747494
2023-05-23T03:28:02.471Z,9.747534
2023-05-23T03:29:02.457Z,9.747479
2023-05-23T03:30:02.478Z,9.747488
2023-05-23T03:31:02.485Z,9.747470
2023-05-23T03:32:02.473Z,9.747505
2023-05-23T03:33:02.463Z,9.747481
2023-05-23T03:34:02.445Z,9.747483
2023-05-23T03:35:02.445Z,9.747474
2023-05-23T03:36:02.471Z,9.747468
2023-05-23T03:37:02.419Z,9.747461
2023-05-23T03:38:02.411Z,9.747505
2023-05-23T03:39:02.387Z,9.747536
2023-05-23T03:40:02.422Z,9.747438
2023-05-23T03:41:02.381Z,9.747433
2023-05-23T03:42:02.355Z,9.747434
2023-05-23T03:43:02.363Z,9.747416
2023-05-23T03:44:02.383Z,9.747491
2023-05-23T03:45:02.374Z,9.747524
2023-05-23T03:46:02.394Z,9.747504
2023-05-23T03:47:02.353Z,9.747592
2023-05-23T03:48:02.366Z,9.747578
2023-05-23T03:49:02.359Z,9.747554
2023-05-23T03:50:02.320Z,9.747638
2023-05-23T03:51:02.296Z,9.747551
2023-05-23T03:52:02.351Z,9.747501
2023-05-23T03:53:02.283Z,9.747607
2023-05-23T03:54:02.300Z,9.747649
2023-05-23T03:55:02.300Z,9.747655
2023-05-23T03:56:02.249Z,9.747625
2023-05-23T03:57:02.238Z,9.747837
2023-05-23T03:58:02.258Z,9.747656
2023-05-23T03:59:02.270Z,9.747584
2023-05-23T04:00:02.247Z,9.747589
2023-05-23T04:01:02.341Z,9.747787
2023-05-23T04:02:02.261Z,9.747624
2023-05-23T04:03:02.333Z,9.747532
2023-05-23T04:04:02.328Z,9.747616
2023-05-23T04:05:02.223Z,9.747642
2023-05-23T04:06:02.232Z,9.747513
2023-05-23T04:07:02.166Z,9.747453
2023-05-23T04:08:02.265Z,9.747446
2023-05-23T04:09:02.164Z,9.747540
2023-05-23T04:10:02.164Z,9.747513
2023-05-23T04:11:02.134Z,9.747404
2023-05-23T04:12:02.137Z,9.747519
2023-05-23T04:13:02.154Z,9.747576
2023-05-23T04:14:02.109Z,9.747504
2023-05-23T04:15:02.109Z,9.747622
2023-05-23T04:16:02.174Z,9.747439
2023-05-23T04:17:02.119Z,9.747514
2023-05-23T04:18:02.140Z,9.747602
2023-05-23T04:19:04.832Z,9.747569
2023-05-23T04:20:02.074Z,9.747543
2023-05-23T04:21:02.067Z,9.747419
2023-05-23T04:22:02.010Z,9.747423
2023-05-23T04:23:01.994Z,9.747562
2023-05-23T04:24:02.045Z,9.747415
2023-05-23T04:25:01.967Z,9.747562
2023-05-23T04:26:01.933Z,9.747564
2023-05-23T04:27:01.948Z,9.747587
2023-05-23T04:28:01.959Z,9.747639
2023-05-23T04:29:01.908Z,9.747616
2023-05-23T04:30:01.909Z,9.747550
2023-05-23T04:31:01.914Z,9.747569
2023-05-23T04:32:01.915Z,9.747643
2023-05-23T04:33:01.932Z,9.747634
2023-05-23T04:34:01.868Z,9.747832
2023-05-23T04:35:01.849Z,9.747892
2023-05-23T04:36:01.883Z,9.747750
2023-05-23T04:37:01.915Z,9.747432
2023-05-23T04:38:01.879Z,9.747452
2023-05-23T04:39:01.850Z,9.747591
2023-05-23T04:40:01.906Z,9.747355
2023-05-23T04:41:01.903Z,9.747323
2023-05-23T04:42:01.816Z,9.747136
2023-05-23T04:43:01.810Z,9.747375
2023-05-23T04:44:01.787Z,9.747263
2023-05-23T04:45:01.793Z,9.747604
2023-05-23T04:46:01.802Z,9.747345
2023-05-23T04:47:01.888Z,9.747162
2023-05-23T04:48:01.802Z,9.747296
2023-05-23T04:49:01.769Z,9.747403
2023-05-23T04:50:01.924Z,9.747491
2023-05-23T04:51:01.773Z,9.747470
2023-05-23T04:52:01.743Z,9.747577
2023-05-23T04:53:01.749Z,9.747511
2023-05-23T04:54:01.723Z,9.747418
2023-05-23T04:55:01.817Z,9.747540
2023-05-23T04:56:01.791Z,9.747555
2023-05-23T04:57:02.700Z,9.747529
2023-05-23T04:58:01.702Z,9.747291
2023-05-23T04:59:01.696Z,9.747580
2023-05-23T05:00:01.693Z,9.747704
2023-05-23T05:01:01.694Z,9.747714
2023-05-23T05:02:01.677Z,9.747582
2023-05-23T05:03:01.695Z,9.747562
2023-05-23T05:04:01.707Z,9.747466
2023-05-23T05:05:01.670Z,9.747318
2023-05-23T05:06:01.623Z,9.747486
2023-05-23T05:07:01.625Z,9.747636
2023-05-23T05:08:01.620Z,9.747523
2023-05-23T05:09:01.633Z,9.747508
2023-05-23T05:10:01.625Z,9.747418
2023-05-23T05:11:01.609Z,9.747634
2023-05-23T05:12:01.663Z,9.747500
2023-05-23T05:13:01.573Z,9.747571
2023-05-23T05:14:01.621Z,9.747541
2023-05-23T05:15:01.558Z,9.747565
2023-05-23T05:16:01.556Z,9.747452
2023-05-23T05:17:01.640Z,9.747530
2023-05-23T05:18:01.626Z,9.747573
2023-05-23T05:19:01.551Z,9.747616
2023-05-23T05:20:01.532Z,9.747576
2023-05-23T05:21:01.537Z,9.747656
2023-05-23T05:22:01.536Z,9.747592
2023-05-23T05:23:01.493Z,9.747544
2023-05-23T05:24:01.517Z,9.747542
2023-05-23T05:25:01.494Z,9.747532
2023-05-23T05:26:01.476Z,9.747459
2023-05-23T05:27:01.480Z,9.747624
2023-05-23T05:28:01.566Z,9.747794
2023-05-23T05:29:01.484Z,9.747659
2023-05-23T05:30:01.440Z,9.747548
2023-05-23T05:31:01.515Z,9.747638
2023-05-23T05:32:01.428Z,9.747683
2023-05-23T05:33:01.508Z,9.747512
2023-05-23T05:34:01.428Z,9.747570
2023-05-23T05:35:01.407Z,9.747453
2023-05-23T05:36:01.397Z,9.747714
2023-05-23T05:37:01.397Z,9.747629
2023-05-23T05:38:01.418Z,9.747725
2023-05-23T05:39:01.389Z,9.747569
2023-05-23T05:40:01.360Z,9.747470
2023-05-23T05:41:01.362Z,9.747504
2023-05-23T05:42:01.369Z,9.747475
2023-05-23T05:43:01.366Z,9.747623
2023-05-23T05:44:01.406Z,9.747473
2023-05-23T05:45:01.324Z,9.747599
2023-05-23T05:46:01.333Z,9.747550
2023-05-23T05:47:01.409Z,9.747354
2023-05-23T05:48:01.348Z,9.747531
2023-05-23T05:49:01.316Z,9.747501
2023-05-23T05:50:01.310Z,9.747429
2023-05-23T05:51:01.299Z,9.747464
2023-05-23T05:52:01.291Z,9.747478
2023-05-23T05:53:01.260Z,9.747365
2023-05-23T05:54:01.260Z,9.747444
2023-05-23T05:55:01.254Z,9.747519
2023-05-23T05:56:01.316Z,9.747489
2023-05-23T05:57:01.256Z,9.747433
2023-05-23T05:58:01.233Z,9.747501
2023-05-23T05:59:01.227Z,9.747499
2023-05-23T06:00:01.298Z,9.747376
2023-05-23T06:01:01.233Z,9.747437
2023-05-23T06:02:01.226Z,9.747555
2023-05-23T06:03:01.291Z,9.747540
2023-05-23T06:04:01.312Z,9.747500
2023-05-23T06:05:01.316Z,9.747458
2023-05-23T06:06:01.199Z,9.747448
2023-05-23T06:07:01.153Z,9.747325
2023-05-23T06:08:01.184Z,9.747620
2023-05-23T06:09:01.151Z,9.747636
2023-05-23T06:10:01.176Z,9.747567
2023-05-23T06:11:01.155Z,9.747541
2023-05-23T06:12:01.513Z,9.747412
2023-05-23T06:13:01.113Z,9.747441
2023-05-23T06:14:01.110Z,9.747338
2023-05-23T06:15:01.123Z,9.747362
2023-05-23T06:16:01.215Z,9.747399
2023-05-23T06:17:01.085Z,9.747417
2023-05-23T06:18:01.103Z,9.747400
2023-05-23T06:19:01.081Z,9.747496
2023-05-23T06:20:01.108Z,9.747526
2023-05-23T06:21:01.046Z,9.747510
2023-05-23T06:22:01.050Z,9.747439
2023-05-23T06:23:01.038Z,9.747569
2023-05-23T06:24:01.045Z,9.747510
2023-05-23T06:25:01.051Z,9.747540
2023-05-23T06:26:01.019Z,9.747448
2023-05-23T06:27:01.008Z,9.747475
2023-05-23T06:28:00.996Z,9.747640
2023-05-23T06:29:01.000Z,9.747508
2023-05-23T06:30:01.013Z,9.747470
2023-05-23T06:31:00.973Z,9.747469
2023-05-23T06:32:01.080Z,9.747348
2023-05-23T06:33:01.978Z,9.747416
2023-05-23T06:34:00.991Z,9.747461
2023-05-23T06:35:00.961Z,9.747436
2023-05-23T06:36:00.931Z,9.747567
2023-05-23T06:37:00.922Z,9.747491
2023-05-23T06:38:00.914Z,9.747451
2023-05-23T06:39:00.927Z,9.747488
2023-05-23T06:40:00.905Z,9.747472
2023-05-23T06:41:00.899Z,9.747501
2023-05-23T06:42:00.882Z,9.747472
2023-05-23T06:43:00.886Z,9.747431
2023-05-23T06:44:00.909Z,9.747435
2023-05-23T06:45:00.869Z,9.747467
2023-05-23T06:46:00.871Z,9.747468
2023-05-23T06:47:00.844Z,9.747543
2023-05-23T06:48:01.053Z,9.747478
2023-05-23T06:49:13.687Z,9.747422
2023-05-23T06:50:02.842Z,9.747270
2023-05-23T06:51:00.835Z,9.747394
2023-05-23T06:52:00.814Z,9.747479
2023-05-23T06:53:00.835Z,9.747377
2023-05-23T06:54:00.784Z,9.747499
2023-05-23T06:55:00.785Z,9.747502
2023-05-23T06:56:00.776Z,9.747464
2023-05-23T06:57:00.768Z,9.747454
2023-05-23T06:58:00.781Z,9.747454
2023-05-23T06:59:00.750Z,9.747441
2023-05-23T07:00:00.749Z,9.747523
2023-05-23T07:01:00.777Z,9.747589
2023-05-23T07:02:00.771Z,9.747507
2023-05-23T07:03:00.804Z,9.747545
2023-05-23T07:04:00.757Z,9.747602
2023-05-23T07:05:00.741Z,9.747591
2023-05-23T07:06:00.742Z,9.747491
2023-05-23T07:07:00.719Z,9.747451
2023-05-23T07:08:00.680Z,9.747498
2023-05-23T07:09:00.692Z,9.747469
2023-05-23T07:10:00.662Z,9.747499
2023-05-23T07:11:00.661Z,9.747548
2023-05-23T07:12:00.684Z,9.747466
2023-05-23T07:13:00.643Z,9.747463
2023-05-23T07:14:00.630Z,9.747548
2023-05-23T07:15:00.624Z,9.747552
2023-05-23T07:16:00.629Z,9.747588
2023-05-23T07:17:00.696Z,9.747595
2023-05-23T07:18:00.646Z,9.747602
2023-05-23T07:19:00.598Z,9.747536
2023-05-23T07:20:00.661Z,9.747580
2023-05-23T07:21:00.601Z,9.747538
2023-05-23T07:22:00.638Z,9.747646
2023-05-23T07:23:00.560Z,9.747560
2023-05-23T07:24:00.576Z,9.747512
2023-05-23T07:25:00.560Z,9.747747
2023-05-23T07:26:03.160Z,9.747544
2023-05-23T07:27:01.552Z,9.747557
2023-05-23T07:28:00.522Z,9.747627
2023-05-23T07:29:00.538Z,9.747546
2023-05-23T07:30:00.535Z,9.747614
2023-05-23T07:31:00.558Z,9.747558
2023-05-23T07:32:00.515Z,9.747607
2023-05-23T07:33:00.536Z,9.747550
2023-05-23T07:34:00.487Z,9.747511
2023-05-23T07:35:00.554Z,9.747469
2023-05-23T07:36:00.514Z,9.747488
2023-05-23T07:37:00.464Z,9.747499
2023-05-23T07:38:00.453Z,9.747510
2023-05-23T07:39:00.453Z,9.747526
2023-05-23T07:40:00.493Z,9.747538
2023-05-23T07:41:10.667Z,9.747463
2023-05-23T07:42:02.420Z,9.747476
2023-05-23T07:43:00.412Z,9.747494
2023-05-23T07:44:00.422Z,9.747471
2023-05-23T07:45:00.442Z,9.747520
2023-05-23T07:46:00.437Z,9.747445
2023-05-23T07:47:00.505Z,9.747483
2023-05-23T07:48:00.394Z,9.747434
2023-05-23T07:49:00.389Z,9.747456
2023-05-23T07:50:00.392Z,9.747378
2023-05-23T07:51:00.363Z,9.747446
2023-05-23T07:52:00.548Z,9.747473
2023-05-23T07:53:00.339Z,9.747535
2023-05-23T07:54:00.364Z,9.747499
2023-05-23T07:55:00.348Z,9.747417
2023-05-23T07:56:00.323Z,9.747363
2023-05-23T07:57:00.323Z,9.747432
2023-05-23T07:58:00.293Z,9.747396
2023-05-23T07:59:00.324Z,9.747489
2023-05-23T08:00:00.310Z,9.747437
2023-05-23T08:01:00.279Z,9.747500
2023-05-23T08:02:00.311Z,9.747450
2023-05-23T08:03:00.302Z,9.747470
2023-05-23T08:04:00.388Z,9.747485
2023-05-23T08:05:00.238Z,9.747404
2023-05-23T08:06:00.232Z,9.747428
2023-05-23T08:07:05.598Z,9.747414
2023-05-23T08:08:02.242Z,9.747533
2023-05-23T08:09:00.467Z,9.747563
2023-05-23T08:10:00.203Z,9.747447
2023-05-23T08:11:00.204Z,9.747317
2023-05-23T08:12:00.213Z,9.747435
2023-05-23T08:13:00.231Z,9.747214
2023-05-23T08:14:01.355Z,9.747359
2023-05-23T08:15:00.172Z,9.747584
2023-05-23T08:16:00.196Z,9.747497
2023-05-23T08:17:00.286Z,9.747302
2023-05-23T08:18:00.261Z,9.747419
2023-05-23T08:19:00.258Z,9.747454
2023-05-23T08:20:00.152Z,9.747469
2023-05-23T08:21:00.126Z,9.747432
2023-05-23T08:22:00.149Z,9.747506
2023-05-23T08:23:00.189Z,9.747522
2023-05-23T08:24:00.148Z,9.747509
2023-05-23T08:25:00.112Z,9.747458
2023-05-23T08:26:00.105Z,9.747375
2023-05-23T08:27:00.126Z,9.747409
2023-05-23T08:28:00.082Z,9.747489
2023-05-23T08:29:00.069Z,9.747496
2023-05-23T08:30:00.065Z,9.747403
2023-05-23T08:31:00.026Z,9.747251
2023-05-23T08:32:00.169Z,9.747254
2023-05-23T08:33:00.042Z,9.747337
2023-05-23T08:34:00.020Z,9.747330
2023-05-23T08:35:00.026Z,9.747441
2023-05-23T08:36:00.026Z,9.747465
2023-05-23T08:37:00.012Z,9.747442
2023-05-23T08:37:59.990Z,9.747446
2023-05-23T08:38:59.969Z,9.747437
2023-05-23T08:39:59.990Z,9.747466
2023-05-23T08:40:59.980Z,9.747426
2023-05-23T08:41:59.989Z,9.747388
2023-05-23T08:42:59.971Z,9.747439
2023-05-23T08:43:59.932Z,9.747336
2023-05-23T08:44:59.926Z,9.747297
2023-05-23T08:46:00.011Z,9.747412
2023-05-23T08:46:59.913Z,9.747375
2023-05-23T08:47:59.945Z,9.747410
2023-05-23T08:48:59.907Z,9.747459
2023-05-23T08:49:59.909Z,9.747229
2023-05-23T08:50:59.908Z,9.747350
2023-05-23T08:51:59.872Z,9.747455
2023-05-23T08:52:59.893Z,9.747364
2023-05-23T08:53:59.861Z,9.747332
2023-05-23T08:54:59.857Z,9.747316
2023-05-23T08:55:59.878Z,9.747313
2023-05-23T08:56:59.839Z,9.747313
2023-05-23T08:57:59.838Z,9.747381
2023-05-23T08:58:59.845Z,9.747442
2023-05-23T08:59:59.854Z,9.747231
2023-05-23T09:00:59.836Z,9.747356
2023-05-23T09:01:59.922Z,9.747367
2023-05-23T09:02:59.815Z,9.747525
2023-05-23T09:03:59.782Z,9.747412
2023-05-23T09:04:59.877Z,9.747438
2023-05-23T09:05:59.823Z,9.747402
2023-05-23T09:06:59.769Z,9.747478
2023-05-23T09:07:59.749Z,9.747441
2023-05-23T09:08:59.745Z,9.747359
2023-05-23T09:09:59.782Z,9.747410
2023-05-23T09:10:59.730Z,9.747431
2023-05-23T09:11:59.738Z,9.747422
2023-05-23T09:12:59.721Z,9.747552
2023-05-23T09:13:59.756Z,9.747361
2023-05-23T09:14:59.734Z,9.747424
2023-05-23T09:15:59.737Z,9.747447
2023-05-23T09:17:00.479Z,9.747364
2023-05-23T09:17:59.713Z,9.747442
2023-05-23T09:18:59.757Z,9.747363
2023-05-23T09:19:59.680Z,9.747428
2023-05-23T09:20:59.680Z,9.747357
2023-05-23T09:21:59.664Z,9.747401
2023-05-23T09:23:01.603Z,9.747403
2023-05-23T09:23:59.672Z,9.747405
2023-05-23T09:24:59.619Z,9.747344
2023-05-23T09:25:59.625Z,9.747276
2023-05-23T09:26:59.608Z,9.747290
2023-05-23T09:27:59.621Z,9.747408
2023-05-23T09:28:59.616Z,9.747305
2023-05-23T09:29:59.589Z,9.747389
2023-05-23T09:30:59.575Z,9.747444
2023-05-23T09:31:59.702Z,9.747424
2023-05-23T09:33:01.404Z,9.747319
2023-05-23T09:33:59.553Z,9.747343
2023-05-23T09:34:59.562Z,9.747360
2023-05-23T09:35:59.536Z,9.747394
2023-05-23T09:36:59.526Z,9.747363
2023-05-23T09:37:59.544Z,9.747302
2023-05-23T09:39:01.441Z,9.747208
2023-05-23T09:39:59.546Z,9.747268
2023-05-23T09:40:59.506Z,9.747236
2023-05-23T09:41:59.496Z,9.747343
2023-05-23T09:42:59.507Z,9.747219
2023-05-23T09:43:59.469Z,9.747292
2023-05-23T09:45:00.249Z,9.747370
2023-05-23T09:45:59.455Z,9.747352
2023-05-23T09:46:59.486Z,9.747561
2023-05-23T09:47:59.566Z,9.747366
2023-05-23T09:48:59.441Z,9.747258
2023-05-23T09:49:59.424Z,9.747366
2023-05-23T09:51:00.568Z,9.747466
2023-05-23T09:51:59.443Z,9.747385
2023-05-23T09:52:59.431Z,9.747287
2023-05-23T09:53:59.408Z,9.747278
2023-05-23T09:54:59.443Z,9.747375
2023-05-23T09:55:59.404Z,9.747339
2023-05-23T09:56:59.433Z,9.747512
2023-05-23T09:57:59.418Z,9.747628
2023-05-23T09:58:59.377Z,9.747423
2023-05-23T09:59:59.354Z,9.747293
2023-05-23T10:00:59.391Z,9.747329
2023-05-23T10:01:59.387Z,9.747332
2023-05-23T10:02:59.405Z,9.747314
2023-05-23T10:04:00.262Z,9.747275
2023-05-23T10:05:00.311Z,9.747326
2023-05-23T10:05:59.332Z,9.747316
2023-05-23T10:06:59.310Z,9.747389
2023-05-23T10:07:59.307Z,9.747376
2023-05-23T10:08:59.282Z,9.747268
2023-05-23T10:09:59.432Z,9.747190
2023-05-23T10:10:59.292Z,9.747338
2023-05-23T10:11:59.253Z,9.747313
2023-05-23T10:12:59.264Z,9.747354
2023-05-23T10:13:59.232Z,9.747265
2023-05-23T10:14:59.236Z,9.747269
2023-05-23T10:15:59.423Z,9.747230
2023-05-23T10:16:59.271Z,9.747338
2023-05-23T10:17:59.278Z,9.747288
2023-05-23T10:18:59.239Z,9.747268
2023-05-23T10:19:59.222Z,9.747270
2023-05-23T10:20:59.210Z,9.747424
2023-05-23T10:21:59.188Z,9.747367
2023-05-23T10:22:59.173Z,9.747309
2023-05-23T10:23:59.167Z,9.747252
2023-05-23T10:24:59.184Z,9.747293
2023-05-23T10:25:59.153Z,9.747250
2023-05-23T10:26:59.129Z,9.747404
2023-05-23T10:28:00.397Z,9.747284
2023-05-23T10:28:59.124Z,9.747295
2023-05-23T10:29:59.159Z,9.747194
2023-05-23T10:30:59.124Z,9.747224
2023-05-23T10:31:59.099Z,9.747340
2023-05-23T10:32:59.186Z,9.747353
2023-05-23T10:33:59.112Z,9.747387
2023-05-23T10:34:59.125Z,9.747426
2023-05-23T10:35:59.133Z,9.747341
2023-05-23T10:36:59.062Z,9.747316
2023-05-23T10:37:59.048Z,9.747359
2023-05-23T10:38:59.093Z,9.747381
2023-05-23T10:39:59.077Z,9.747375
2023-05-23T10:40:59.036Z,9.747381
2023-05-23T10:41:59.017Z,9.747380
2023-05-23T10:42:59.026Z,9.747425
2023-05-23T10:43:59.029Z,9.747406
2023-05-23T10:44:59.646Z,9.747437
2023-05-23T10:45:59.063Z,9.747372
2023-05-23T10:46:59.044Z,9.747345
2023-05-23T10:47:59.035Z,9.747402
2023-05-23T10:48:59.030Z,9.747324
2023-05-23T10:49:58.959Z,9.747347
2023-05-23T10:50:58.951Z,9.747363
2023-05-23T10:51:58.952Z,9.747375
2023-05-23T10:52:58.965Z,9.747487
2023-05-23T10:53:58.925Z,9.747418
2023-05-23T10:54:58.922Z,9.747356
2023-05-23T10:55:58.910Z,9.747445
2023-05-23T10:56:58.902Z,9.747400
2023-05-23T10:57:59.933Z,9.747444
2023-05-23T10:58:58.917Z,9.747423
2023-05-23T10:59:58.901Z,9.747417
2023-05-23T11:00:58.877Z,9.747440
2023-05-23T11:01:58.915Z,9.747514
2023-05-23T11:02:58.946Z,9.747433
2023-05-23T11:03:58.915Z,9.747416
2023-05-23T11:04:59.854Z,9.747417
2023-05-23T11:05:58.838Z,9.747411
2023-05-23T11:06:58.851Z,9.747433
2023-05-23T11:07:58.822Z,9.747401
2023-05-23T11:08:58.806Z,9.747375
2023-05-23T11:09:58.799Z,9.747427
2023-05-23T11:10:58.803Z,9.747404
2023-05-23T11:11:58.823Z,9.747410
2023-05-23T11:12:58.793Z,9.747413
2023-05-23T11:13:58.775Z,9.747400
2023-05-23T11:14:58.768Z,9.747355
2023-05-23T11:15:58.803Z,9.747411
2023-05-23T11:16:58.782Z,9.747295
2023-05-23T11:17:58.817Z,9.747310
2023-05-23T11:18:58.773Z,9.747367
2023-05-23T11:19:58.767Z,9.747377
2023-05-23T11:20:58.771Z,9.747393
2023-05-23T11:21:58.717Z,9.747476
2023-05-23T11:22:58.693Z,9.747403
2023-05-23T11:23:58.707Z,9.747397
2023-05-23T11:24:58.691Z,9.747452
2023-05-23T11:25:58.707Z,9.747492
2023-05-23T11:26:58.678Z,9.747339
2023-05-23T11:27:58.677Z,9.747381
2023-05-23T11:28:58.652Z,9.747427
2023-05-23T11:29:58.648Z,9.747374
2023-05-23T11:30:58.662Z,9.747346
2023-05-23T11:31:58.705Z,9.747341
2023-05-23T11:32:59.686Z,9.747385
2023-05-23T11:33:58.622Z,9.747434
2023-05-23T11:34:58.636Z,9.747395
2023-05-23T11:35:58.626Z,9.747431
2023-05-23T11:36:58.594Z,9.747460
2023-05-23T11:37:58.588Z,9.747418
2023-05-23T11:38:58.589Z,9.747495
2023-05-23T11:39:58.616Z,9.747447
2023-05-23T11:40:58.572Z,9.747428
2023-05-23T11:41:58.567Z,9.747422
2023-05-23T11:42:58.546Z,9.747365
2023-05-23T11:43:58.549Z,9.747379